createdAt,value
2023-05-19T00:01:25.859Z,100626.63
2023-05-19T00:03:57.433Z,100629.16
2023-05-19T00:06:27.802Z,100634.19
2023-05-19T00:09:01.468Z,100633.31
2023-05-19T00:11:29.499Z,100634.97
2023-05-19T00:13:59.342Z,100636.66
2023-05-19T00:16:28.478Z,100631.53
2023-05-19T00:18:58.316Z,100628.16
2023-05-19T00:21:25.607Z,100623.06
2023-05-19T00:23:52.771Z,100626.41
2023-05-19T00:26:20.048Z,100624.69
2023-05-19T00:28:55.499Z,100622.09
2023-05-19T00:31:22.704Z,100629.69
2023-05-19T00:33:49.740Z,100615.25
2023-05-19T00:36:16.782Z,100621.97
2023-05-19T00:38:43.848Z,100621.88
2023-05-19T00:41:11.011Z,100632.81
2023-05-19T00:43:38.006Z,100627.72
2023-05-19T00:46:05.133Z,100627.63
2023-05-19T00:48:32.138Z,100630.16
2023-05-19T00:51:04.696Z,100630.09
2023-05-19T00:53:34.053Z,100617.38
2023-05-19T00:56:02.741Z,100614.78
2023-05-19T00:58:32.695Z,100613.91
2023-05-19T01:01:05.328Z,100621.44
2023-05-19T01:03:35.589Z,100609.56
2023-05-19T01:06:07.392Z,100614.59
2023-05-19T01:08:37.773Z,100621.31
2023-05-19T01:11:08.393Z,100609.44
2023-05-19T01:13:36.825Z,100614.50
2023-05-19T01:16:13.989Z,100609.41
2023-05-19T01:19:10.903Z,100614.47
2023-05-19T01:22:07.373Z,100600.88
2023-05-19T01:25:03.505Z,100601.66
2023-05-19T01:27:58.014Z,100606.63
2023-05-19T01:30:37.740Z,100603.19
2023-05-19T01:33:14.154Z,100603.13
2023-05-19T01:35:44.457Z,100599.78
2023-05-19T01:38:14.700Z,100603.13
2023-05-19T01:40:43.721Z,100592.94
2023-05-19T01:43:16.994Z,100598.00
2023-05-19T01:45:45.312Z,100593.72
2023-05-19T01:48:14.094Z,100596.25
2023-05-19T01:50:42.424Z,100608.91
2023-05-19T01:53:10.341Z,100610.53
2023-05-19T01:55:51.154Z,100597.84
2023-05-19T01:58:41.663Z,100600.28
2023-05-19T02:01:54.546Z,100601.88
2023-05-19T02:04:44.120Z,100599.19
2023-05-19T02:07:29.124Z,100603.28
2023-05-19T02:10:10.704Z,100604.09
2023-05-19T02:12:40.767Z,100604.06
2023-05-19T02:15:16.333Z,100605.69
2023-05-19T02:17:51.646Z,100602.31
2023-05-19T02:20:18.932Z,100605.66
2023-05-19T02:22:46.684Z,100597.19
2023-05-19T02:25:14.025Z,100593.81
2023-05-19T02:27:42.136Z,100602.22
2023-05-19T02:30:10.205Z,100602.19
2023-05-19T02:32:37.487Z,100600.47
2023-05-19T02:35:05.298Z,100594.50
2023-05-19T02:37:32.442Z,100594.47
2023-05-19T02:39:59.543Z,100582.59
2023-05-19T02:42:26.546Z,100583.41
2023-05-19T02:44:55.148Z,100574.91
2023-05-19T02:47:22.194Z,100577.41
2023-05-19T02:49:49.375Z,100571.47
2023-05-19T02:52:16.384Z,100575.66
2023-05-19T02:54:43.490Z,100573.91
2023-05-19T02:57:11.198Z,100568.81
2023-05-19T02:59:38.355Z,100564.59
2023-05-19T03:02:05.504Z,100574.69
2023-05-19T03:04:32.973Z,100576.31
2023-05-19T03:06:59.973Z,100572.03
2023-05-19T03:09:27.025Z,100582.97
2023-05-19T03:11:54.408Z,100584.63
2023-05-19T03:14:24.027Z,100587.06
2023-05-19T03:16:51.387Z,100588.69
2023-05-19T03:19:18.625Z,100588.63
2023-05-19T03:21:46.289Z,100589.47
2023-05-19T03:24:13.755Z,100591.94
2023-05-19T03:26:41.004Z,100589.38
2023-05-19T03:29:08.294Z,100586.84
2023-05-19T03:31:37.231Z,100588.50
2023-05-19T03:34:05.262Z,100585.13
2023-05-19T03:36:32.395Z,100584.31
2023-05-19T03:39:00.455Z,100585.13
2023-05-19T03:41:27.954Z,100584.31
2023-05-19T03:43:55.994Z,100585.13
2023-05-19T03:46:23.232Z,100580.97
2023-05-19T03:49:13.897Z,100585.13
2023-05-19T03:51:59.472Z,100587.63
2023-05-19T03:54:33.789Z,100579.16
2023-05-19T03:57:02.086Z,100582.59
2023-05-19T03:59:31.707Z,100571.66
2023-05-19T04:01:58.886Z,100587.72
2023-05-19T04:04:27.148Z,100580.19
2023-05-19T04:06:54.463Z,100582.75
2023-05-19T04:09:23.979Z,100577.75
2023-05-19T04:11:51.208Z,100589.72
2023-05-19T04:14:19.573Z,100588.16
2023-05-19T04:16:46.632Z,100580.69
2023-05-19T04:19:13.683Z,100591.88
2023-05-19T04:21:40.763Z,100588.72
2023-05-19T04:24:07.911Z,100592.28
2023-05-19T04:26:35.937Z,100594.19
2023-05-19T04:29:04.524Z,100592.75
2023-05-19T04:31:34.284Z,100595.47
2023-05-19T04:34:02.220Z,100593.25
2023-05-19T04:36:29.482Z,100590.94
2023-05-19T04:39:02.701Z,100596.28
2023-05-19T04:41:31.514Z,100590.63
2023-05-19T04:43:58.767Z,100594.22
2023-05-19T04:46:27.260Z,100592.78
2023-05-19T04:48:55.364Z,100596.38
2023-05-19T04:51:23.120Z,100594.88
2023-05-19T04:53:51.541Z,100597.63
2023-05-19T04:56:18.698Z,100603.72
2023-05-19T04:58:45.750Z,100599.66
2023-05-19T05:01:13.882Z,100596.38
2023-05-19T05:03:42.150Z,100589.72
2023-05-19T05:06:11.674Z,100598.31
2023-05-19T05:08:40.484Z,100602.63
2023-05-19T05:11:08.156Z,100594.25
2023-05-19T05:13:35.905Z,100596.78
2023-05-19T05:16:06.473Z,100590.03
2023-05-19T05:18:35.158Z,100590.91
2023-05-19T05:21:03.082Z,100592.56
2023-05-19T05:23:30.670Z,100585.72
2023-05-19T05:25:58.449Z,100594.97
2023-05-19T05:28:25.492Z,100574.47
2023-05-19T05:30:54.364Z,100590.53
2023-05-19T05:33:22.356Z,100581.88
2023-05-19T05:35:50.448Z,100579.19
2023-05-19T05:38:17.524Z,100578.97
2023-05-19T05:40:44.538Z,100577.19
2023-05-19T05:43:12.072Z,100579.66
2023-05-19T05:45:45.786Z,100576.16
2023-05-19T05:48:13.388Z,100579.44
2023-05-19T05:50:43.715Z,100564.78
2023-05-19T05:53:19.251Z,100573.19
2023-05-19T05:55:49.068Z,100561.94
2023-05-19T05:58:17.014Z,100561.72
2023-05-19T06:00:44.217Z,100564.19
2023-05-19T06:03:11.809Z,100575.94
2023-05-19T06:05:39.315Z,100575.75
2023-05-19T06:08:06.600Z,100573.84
2023-05-19T06:10:35.479Z,100566.78
2023-05-19T06:13:06.406Z,100576.78
2023-05-19T06:15:33.476Z,100569.63
2023-05-19T06:18:05.178Z,100566.84
2023-05-19T06:20:32.582Z,100570.03
2023-05-19T06:23:01.327Z,100560.38
2023-05-19T06:25:29.471Z,100566.13
2023-05-19T06:27:57.546Z,100559.09
2023-05-19T06:30:24.732Z,100557.16
2023-05-19T06:33:01.538Z,100559.53
2023-05-19T06:35:28.698Z,100557.56
2023-05-19T06:37:56.280Z,100560.75
2023-05-19T06:40:23.839Z,100562.13
2023-05-19T06:42:50.872Z,100563.59
2023-05-19T06:45:53.767Z,100570.16
2023-05-19T06:48:22.043Z,100563.03
2023-05-19T06:50:50.546Z,100556.88
2023-05-19T06:53:21.234Z,100566.91
2023-05-19T06:55:58.670Z,100568.50
2023-05-19T06:58:28.803Z,100570.94
2023-05-19T07:00:56.726Z,100583.69
2023-05-19T07:03:27.644Z,100573.25
2023-05-19T07:05:55.563Z,100574.69
2023-05-19T07:08:22.861Z,100563.34
2023-05-19T07:10:49.964Z,100577.63
2023-05-19T07:13:17.468Z,100574.75
2023-05-19T07:15:45.115Z,100574.34
2023-05-19T07:18:12.558Z,100572.88
2023-05-19T07:20:39.581Z,100570.41
2023-05-19T07:23:09.647Z,100573.78
2023-05-19T07:25:37.023Z,100565.13
2023-05-19T07:28:04.711Z,100570.81
2023-05-19T07:30:31.933Z,100568.63
2023-05-19T07:32:59.086Z,100565.50
2023-05-19T07:35:26.862Z,100562.81
2023-05-19T07:37:53.961Z,100561.63
2023-05-19T07:40:20.978Z,100555.34
2023-05-19T07:42:50.719Z,100559.41
2023-05-19T07:45:17.833Z,100557.19
2023-05-19T07:47:45.104Z,100558.97
2023-05-19T07:50:12.168Z,100550.84
2023-05-19T07:52:39.181Z,100553.97
2023-05-19T07:55:06.368Z,100554.78
2023-05-19T07:57:33.420Z,100558.09
2023-05-19T08:00:00.462Z,100554.16
2023-05-19T08:02:27.648Z,100558.78
2023-05-19T08:04:54.947Z,100552.66
2023-05-19T08:07:22.110Z,100547.53
2023-05-19T08:09:49.112Z,100545.69
2023-05-19T08:12:16.074Z,100541.16
2023-05-19T08:14:43.054Z,100546.56
2023-05-19T08:17:10.171Z,100547.44
2023-05-19T08:19:37.219Z,100553.25
2023-05-19T08:22:04.406Z,100546.47
2023-05-19T08:24:33.767Z,100551.19
2023-05-19T08:27:00.879Z,100545.03
2023-05-19T08:29:27.989Z,100548.00
2023-05-19T08:31:55.162Z,100541.41
2023-05-19T08:34:22.449Z,100539.72
2023-05-19T08:36:49.534Z,100542.38
2023-05-19T08:39:18.493Z,100545.06
2023-05-19T08:41:45.517Z,100536.78
2023-05-19T08:44:12.600Z,100533.00
2023-05-19T08:46:39.656Z,100540.75
2023-05-19T08:49:15.708Z,100527.44
2023-05-19T08:52:00.140Z,100529.53
2023-05-19T08:54:38.150Z,100527.81
2023-05-19T08:57:06.210Z,100531.03
2023-05-19T08:59:34.874Z,100523.91
2023-05-19T09:02:04.029Z,100531.97
2023-05-19T09:04:32.258Z,100528.19
2023-05-19T09:07:03.834Z,100534.97
2023-05-19T09:09:31.083Z,100518.09
2023-05-19T09:11:58.390Z,100515.06
2023-05-19T09:14:25.877Z,100517.84
2023-05-19T09:16:53.739Z,100518.38
2023-05-19T09:19:21.211Z,100512.63
2023-05-19T09:22:04.895Z,100525.56
2023-05-19T09:24:34.199Z,100507.78
2023-05-19T09:27:02.158Z,100519.03
2023-05-19T09:29:29.297Z,100500.19
2023-05-19T09:32:01.071Z,100510.88
2023-05-19T09:34:28.243Z,100501.16
2023-05-19T09:36:55.468Z,100489.22
2023-05-19T09:39:23.966Z,100492.63
2023-05-19T09:41:56.108Z,100485.59
2023-05-19T09:44:28.750Z,100490.50
2023-05-19T09:46:57.176Z,100492.50
2023-05-19T09:49:29.829Z,100489.81
2023-05-19T09:51:59.188Z,100486.63
2023-05-19T09:54:32.054Z,100489.81
2023-05-19T09:57:00.802Z,100487.47
2023-05-19T09:59:32.481Z,100479.38
2023-05-19T10:02:02.153Z,100483.78
2023-05-19T10:04:31.245Z,100484.56
2023-05-19T10:06:59.654Z,100482.66
2023-05-19T10:09:29.417Z,100490.09
2023-05-19T10:11:58.505Z,100482.13
2023-05-19T10:14:28.600Z,100478.41
2023-05-19T10:16:58.267Z,100480.34
2023-05-19T10:19:27.956Z,100482.31
2023-05-19T10:21:56.200Z,100482.97
2023-05-19T10:24:23.326Z,100484.31
2023-05-19T10:27:11.886Z,100475.78
2023-05-19T10:29:49.009Z,100470.03
2023-05-19T10:32:26.713Z,100471.03
2023-05-19T10:35:56.889Z,100460.28
2023-05-19T10:38:56.318Z,100460.81
2023-05-19T10:42:02.249Z,100463.13
2023-05-19T10:45:15.204Z,100456.94
2023-05-19T10:47:42.714Z,100454.31
2023-05-19T10:50:11.134Z,100461.22
2023-05-19T10:52:40.067Z,100458.03
2023-05-19T10:55:17.659Z,100448.50
2023-05-19T10:57:56.702Z,100453.19
2023-05-19T11:00:34.366Z,100453.19
2023-05-19T11:03:14.337Z,100444.88
2023-05-19T11:05:45.124Z,100446.47
2023-05-19T11:08:12.968Z,100445.72
2023-05-19T11:10:44.230Z,100437.00
2023-05-19T11:13:22.759Z,100442.47
2023-05-19T11:15:50.218Z,100442.41
2023-05-19T11:18:18.986Z,100434.22
2023-05-19T11:21:00.680Z,100439.84
2023-05-19T11:23:27.825Z,100442.31
2023-05-19T11:25:54.878Z,100442.13
2023-05-19T11:28:29.191Z,100443.22
2023-05-19T11:30:58.966Z,100434.53
2023-05-19T11:33:27.428Z,100444.22
2023-05-19T11:36:00.215Z,100432.59
2023-05-19T11:38:30.068Z,100444.03
2023-05-19T11:40:57.550Z,100441.94
2023-05-19T11:43:26.230Z,100436.31
2023-05-19T11:45:56.186Z,100436.75
2023-05-19T11:48:24.664Z,100420.09
2023-05-19T11:50:52.441Z,100425.25
2023-05-19T11:53:20.398Z,100429.91
2023-05-19T11:55:49.057Z,100426.41
2023-05-19T11:58:16.984Z,100415.75
2023-05-19T12:00:48.467Z,100413.75
2023-05-19T12:03:15.853Z,100415.97
2023-05-19T12:05:48.726Z,100408.69
2023-05-19T12:08:19.789Z,100410.66
2023-05-19T12:10:50.856Z,100402.94
2023-05-19T12:13:19.153Z,100394.25
2023-05-19T12:15:46.265Z,100392.19
2023-05-19T12:18:13.319Z,100391.47
2023-05-19T12:20:40.633Z,100390.56
2023-05-19T12:23:07.746Z,100397.47
2023-05-19T12:25:35.838Z,100390.22
2023-05-19T12:28:03.323Z,100390.22
2023-05-19T12:30:33.212Z,100385.94
2023-05-19T12:33:02.483Z,100382.00
2023-05-19T12:35:36.314Z,100387.00
2023-05-19T12:38:14.411Z,100386.81
2023-05-19T12:40:42.752Z,100380.41
2023-05-19T12:43:22.820Z,100365.59
2023-05-19T12:45:50.006Z,100369.22
2023-05-19T12:48:17.250Z,100376.94
2023-05-19T12:50:45.116Z,100369.50
2023-05-19T12:53:13.126Z,100364.75
2023-05-19T12:55:44.435Z,100369.13
2023-05-19T12:58:12.523Z,100368.94
2023-05-19T13:00:50.437Z,100361.97
2023-05-19T13:03:20.022Z,100363.84
2023-05-19T13:05:51.237Z,100366.34
2023-05-19T13:08:23.967Z,100366.22
2023-05-19T13:10:51.495Z,100366.75
2023-05-19T13:13:37.730Z,100359.56
2023-05-19T13:16:23.532Z,100356.69
2023-05-19T13:19:21.201Z,100353.91
2023-05-19T13:21:51.968Z,100347.75
2023-05-19T13:24:18.972Z,100345.66
2023-05-19T13:26:46.027Z,100351.19
2023-05-19T13:29:13.067Z,100333.72
2023-05-19T13:31:40.332Z,100339.59
2023-05-19T13:34:07.967Z,100346.75
2023-05-19T13:36:35.040Z,100339.41
2023-05-19T13:39:02.164Z,100346.34
2023-05-19T13:41:29.481Z,100344.22
2023-05-19T13:43:59.814Z,100337.00
2023-05-19T13:46:40.820Z,100329.69
2023-05-19T13:49:11.634Z,100332.91
2023-05-19T13:51:42.723Z,100341.84
2023-05-19T13:54:10.315Z,100334.59
2023-05-19T13:56:37.510Z,100333.56
2023-05-19T14:01:32.567Z,100318.84
2023-05-19T14:04:00.773Z,100318.72
2023-05-19T14:06:30.423Z,100315.44
2023-05-19T14:08:57.978Z,100322.03
2023-05-19T14:11:24.987Z,100325.16
2023-05-19T14:13:53.046Z,100320.56
2023-05-19T14:16:22.135Z,100319.03
2023-05-19T14:18:49.641Z,100316.28
2023-05-19T14:21:16.765Z,100307.84
2023-05-19T14:23:43.979Z,100313.53
2023-05-19T14:26:13.483Z,100304.59
2023-05-19T14:28:40.772Z,100301.72
2023-05-19T14:31:14.695Z,100302.78
2023-05-19T14:33:42.466Z,100297.03
2023-05-19T14:36:09.955Z,100311.06
2023-05-19T14:38:39.436Z,100312.41
2023-05-19T14:41:07.218Z,100306.69
2023-05-19T14:43:34.215Z,100299.97
2023-05-19T14:46:01.382Z,100306.84
2023-05-19T14:48:28.399Z,100308.00
2023-05-19T14:50:55.436Z,100312.78
2023-05-19T14:53:22.532Z,100309.78
2023-05-19T14:55:49.678Z,100307.50
2023-05-19T14:58:27.692Z,100306.16
2023-05-19T15:00:59.070Z,100296.06
2023-05-19T15:03:26.202Z,100296.06
2023-05-19T15:05:53.290Z,100297.13
2023-05-19T15:08:20.280Z,100295.72
2023-05-19T15:10:50.680Z,100293.59
2023-05-19T15:13:18.941Z,100290.66
2023-05-19T15:15:48.408Z,100296.97
2023-05-19T15:18:18.519Z,100294.69
2023-05-19T15:20:46.481Z,100289.69
2023-05-19T15:23:13.618Z,100286.56
2023-05-19T15:25:40.748Z,100275.59
2023-05-19T15:28:08.255Z,100285.44
2023-05-19T15:30:35.518Z,100283.06
2023-05-19T15:33:02.851Z,100268.72
2023-05-19T15:35:29.924Z,100269.66
2023-05-19T15:37:56.922Z,100272.16
2023-05-19T15:40:24.152Z,100278.97
2023-05-19T15:42:51.188Z,100268.84
2023-05-19T15:45:18.233Z,100270.78
2023-05-19T15:47:45.266Z,100268.28
2023-05-19T15:50:12.274Z,100275.28
2023-05-19T15:52:39.298Z,100265.09
2023-05-19T15:55:07.319Z,100260.97
2023-05-19T15:57:36.852Z,100249.13
2023-05-19T16:00:04.220Z,100263.94
2023-05-19T16:02:32.724Z,100259.06
2023-05-19T16:04:59.826Z,100263.59
2023-05-19T16:07:27.586Z,100253.59
2023-05-19T16:09:54.564Z,100249.56
2023-05-19T16:12:22.214Z,100252.31
2023-05-19T16:14:49.212Z,100246.50
2023-05-19T16:17:16.246Z,100249.31
2023-05-19T16:19:46.335Z,100244.38
2023-05-19T16:22:13.523Z,100245.47
2023-05-19T16:24:43.511Z,100243.84
2023-05-19T16:27:10.723Z,100242.16
2023-05-19T16:29:39.886Z,100241.41
2023-05-19T16:32:07.358Z,100243.31
2023-05-19T16:34:34.412Z,100232.31
2023-05-19T16:37:01.458Z,100228.28
2023-05-19T16:39:28.502Z,100229.41
2023-05-19T16:41:55.720Z,100228.66
2023-05-19T16:44:24.393Z,100228.84
2023-05-19T16:46:51.454Z,100233.31
2023-05-19T16:49:18.506Z,100227.50
2023-05-19T16:51:46.789Z,100224.25
2023-05-19T16:54:15.237Z,100215.84
2023-05-19T16:56:42.342Z,100213.34
2023-05-19T16:59:09.834Z,100216.19
2023-05-19T17:01:36.879Z,100209.50
2023-05-19T17:04:03.946Z,100216.50
2023-05-19T17:06:33.492Z,100219.31
2023-05-19T17:09:00.636Z,100213.53
2023-05-19T17:11:28.001Z,100213.66
2023-05-19T17:13:55.069Z,100212.13
2023-05-19T17:16:23.487Z,100211.38
2023-05-19T17:18:51.073Z,100212.38
2023-05-19T17:21:18.281Z,100214.28
2023-05-19T17:23:47.994Z,100215.28
2023-05-19T17:26:16.039Z,100208.56
2023-05-19T17:28:43.088Z,100216.44
2023-05-19T17:31:14.284Z,100212.28
2023-05-19T17:33:44.041Z,100210.69
2023-05-19T17:36:11.067Z,100215.16
2023-05-19T17:38:40.338Z,100216.09
2023-05-19T17:41:13.898Z,100216.28
2023-05-19T17:43:41.836Z,100215.63
2023-05-19T17:46:09.503Z,100220.09
2023-05-19T17:48:42.152Z,100224.50
2023-05-19T17:51:12.064Z,100223.84
2023-05-19T17:53:39.539Z,100231.75
2023-05-19T17:56:09.576Z,100228.38
2023-05-19T17:58:37.007Z,100229.44
2023-05-19T18:01:04.376Z,100234.69
2023-05-19T18:03:34.872Z,100228.03
2023-05-19T18:06:12.079Z,100224.75
2023-05-19T18:08:42.496Z,100230.00
2023-05-19T18:11:13.308Z,100236.19
2023-05-19T18:13:40.584Z,100231.22
2023-05-19T18:16:07.735Z,100231.34
2023-05-19T18:18:37.202Z,100234.94
2023-05-19T18:21:07.290Z,100232.59
2023-05-19T18:23:34.348Z,100236.19
2023-05-19T18:26:01.552Z,100234.63
2023-05-19T18:28:29.630Z,100236.53
2023-05-19T18:31:06.656Z,100232.38
2023-05-19T18:33:33.684Z,100237.69
2023-05-19T18:36:04.000Z,100243.81
2023-05-19T18:38:31.094Z,100243.13
2023-05-19T18:41:01.192Z,100241.63
2023-05-19T18:43:30.080Z,100246.06
2023-05-19T18:45:57.318Z,100240.25
2023-05-19T18:48:27.294Z,100251.56
2023-05-19T18:50:57.143Z,100252.59
2023-05-19T18:53:26.672Z,100255.31
2023-05-19T18:55:53.720Z,100252.13
2023-05-19T18:58:23.881Z,100256.53
2023-05-19T19:00:57.252Z,100254.97
2023-05-19T19:03:24.668Z,100259.38
2023-05-19T19:05:59.859Z,100261.22
2023-05-19T19:08:26.912Z,100261.34
2023-05-19T19:10:59.117Z,100256.31
2023-05-19T19:13:26.595Z,100265.03
2023-05-19T19:15:53.750Z,100266.84
2023-05-19T19:18:20.974Z,100272.97
2023-05-19T19:20:50.792Z,100275.72
2023-05-19T19:23:20.628Z,100272.50
2023-05-19T19:25:47.687Z,100271.84
2023-05-19T19:28:14.801Z,100278.88
2023-05-19T19:30:46.142Z,100280.81
2023-05-19T19:33:16.290Z,100282.69
2023-05-19T19:35:46.923Z,100281.19
2023-05-19T19:38:16.399Z,100281.38
2023-05-19T19:40:43.535Z,100282.41
2023-05-19T19:43:11.042Z,100286.81
2023-05-19T19:45:39.434Z,100292.94
2023-05-19T19:48:07.230Z,100293.03
2023-05-19T19:50:36.925Z,100300.84
2023-05-19T19:53:08.741Z,100301.78
2023-05-19T19:55:35.896Z,100290.84
2023-05-19T19:58:03.008Z,100293.53
2023-05-19T20:00:30.104Z,100294.50
2023-05-19T20:05:29.431Z,100298.16
2023-05-19T20:07:56.601Z,100299.09
2023-05-19T20:10:23.700Z,100308.56
2023-05-19T20:12:51.169Z,100300.13
2023-05-19T20:15:18.330Z,100309.56
2023-05-19T20:17:45.778Z,100304.56
2023-05-19T20:20:13.483Z,100305.50
2023-05-19T20:22:40.678Z,100304.72
2023-05-19T20:25:09.923Z,100308.22
2023-05-19T20:27:37.642Z,100309.16
2023-05-19T20:30:05.758Z,100311.75
2023-05-19T20:32:33.085Z,100307.59
2023-05-19T20:35:00.160Z,100311.88
2023-05-19T20:37:27.150Z,100305.19
2023-05-19T20:39:54.144Z,100312.06
2023-05-19T20:42:21.179Z,100312.94
2023-05-19T20:44:51.289Z,100318.97
2023-05-19T20:47:19.213Z,100313.03
2023-05-19T20:49:46.302Z,100317.34
2023-05-19T20:52:15.978Z,100313.16
2023-05-19T20:54:43.524Z,100321.69
2023-05-19T20:57:10.611Z,100322.56
2023-05-19T20:59:38.303Z,100324.28
2023-05-19T21:02:06.349Z,100326.00
2023-05-19T21:04:34.485Z,100326.06
2023-05-19T21:07:01.586Z,100326.09
2023-05-19T21:09:28.576Z,100328.66
2023-05-19T21:11:55.616Z,100332.09
2023-05-19T21:14:22.706Z,100331.31
2023-05-19T21:16:56.220Z,100326.22
2023-05-19T21:19:23.494Z,100335.63
2023-05-19T21:21:50.879Z,100339.06
2023-05-19T21:24:17.858Z,100336.53
2023-05-19T21:26:44.860Z,100336.56
2023-05-19T21:29:11.878Z,100343.41
2023-05-19T21:31:39.076Z,100339.19
2023-05-19T21:34:07.638Z,100341.78
2023-05-19T21:36:35.193Z,100338.44
2023-05-19T21:39:02.247Z,100335.91
2023-05-19T21:41:31.038Z,100329.16
2023-05-19T21:43:58.153Z,100330.91
2023-05-19T21:46:25.165Z,100329.25
2023-05-19T21:48:52.180Z,100322.50
2023-05-19T21:51:19.142Z,100339.53
2023-05-19T21:53:46.131Z,100340.41
2023-05-19T21:56:13.121Z,100343.00
2023-05-19T21:58:40.223Z,100337.94
2023-05-19T22:01:07.971Z,100342.19
2023-05-19T22:03:34.994Z,100340.53
2023-05-19T22:06:02.325Z,100340.59
2023-05-19T22:08:29.297Z,100344.84
2023-05-19T22:10:56.280Z,100342.31
2023-05-19T22:13:23.336Z,100344.88
2023-05-19T22:15:50.882Z,100336.38
2023-05-19T22:18:17.915Z,100337.22
2023-05-19T22:20:44.906Z,100341.47
2023-05-19T22:23:11.884Z,100348.31
2023-05-19T22:25:38.932Z,100342.34
2023-05-19T22:28:07.910Z,100333.84
2023-05-19T22:30:42.161Z,100336.41
2023-05-19T22:33:11.178Z,100338.94
2023-05-19T22:35:38.511Z,100342.34
2023-05-19T22:38:07.407Z,100337.28
2023-05-19T22:40:36.244Z,100339.81
2023-05-19T22:43:03.356Z,100338.97
2023-05-19T22:45:31.469Z,100340.69
2023-05-19T22:47:58.577Z,100339.00
2023-05-19T22:50:25.711Z,100340.69
2023-05-19T22:52:52.706Z,100334.78
2023-05-19T22:55:19.745Z,100343.25
2023-05-19T22:57:46.743Z,100335.63
2023-05-19T23:00:14.268Z,100336.50
2023-05-19T23:02:44.846Z,100336.50
2023-05-19T23:05:11.889Z,100350.97
2023-05-19T23:07:38.906Z,100350.13
2023-05-19T23:10:07.490Z,100345.88
2023-05-19T23:12:34.757Z,100344.19
2023-05-19T23:15:02.149Z,100346.72
2023-05-19T23:17:29.580Z,100346.72
2023-05-19T23:19:56.750Z,100338.25
2023-05-19T23:22:23.848Z,100345.06
2023-05-19T23:24:51.045Z,100336.56
2023-05-19T23:27:18.029Z,100337.44
2023-05-19T23:29:51.434Z,100346.78
2023-05-19T23:32:18.451Z,100339.16
2023-05-19T23:34:47.412Z,100337.47
2023-05-19T23:37:14.397Z,100330.66
2023-05-19T23:39:41.668Z,100321.34
2023-05-19T23:42:08.660Z,100324.75
2023-05-19T23:44:35.804Z,100323.06
2023-05-19T23:47:02.819Z,100323.06
2023-05-19T23:49:29.841Z,100327.31
2023-05-19T23:51:56.821Z,100326.47
2023-05-19T23:54:23.952Z,100329.88
2023-05-19T23:56:51.260Z,100330.75
2023-05-19T23:59:18.249Z,100335.84
